sensor_id;sensor_type;location;lat;lon;timestamp;P1;durP1;ratioP1;P2;durP2;ratioP2
20880;SDS011;10600;53.096;8.802;2023-02-23T00:00:18;122.28;;;51.55;;
20880;SDS011;10600;53.096;8.802;2023-02-23T00:01:27;125.45;;;51.97;;
20880;SDS011;10600;53.096;8.802;2023-02-23T00:02:29;115.18;;;50.58;;
20880;SDS011;10600;53.096;8.802;2023-02-23T00:03:29;118.50;;;51.97;;
20880;SDS011;10600;53.096;8.802;2023-02-23T00:04:30;109.93;;;49.33;;
20880;SDS011;10600;53.096;8.802;2023-02-23T00:05:35;124.88;;;55.03;;
20880;SDS011;10600;53.096;8.802;2023-02-23T00:06:36;122.53;;;54.40;;
20880;SDS011;10600;53.096;8.802;2023-02-23T00:07:37;120.10;;;52.70;;
20880;SDS011;10600;53.096;8.802;2023-02-23T00:08:38;121.30;;;53.95;;
20880;SDS011;10600;53.096;8.802;2023-02-23T00:09:39;125.15;;;53.15;;
20880;SDS011;10600;53.096;8.802;2023-02-23T00:10:40;122.43;;;53.65;;
20880;SDS011;10600;53.096;8.802;2023-02-23T00:11:41;120.50;;;52.95;;
20880;SDS011;10600;53.096;8.802;2023-02-23T00:12:41;118.05;;;52.80;;
20880;SDS011;10600;53.096;8.802;2023-02-23T00:13:44;120.82;;;52.55;;
20880;SDS011;10600;53.096;8.802;2023-02-23T00:14:45;120.82;;;50.30;;
20880;SDS011;10600;53.096;8.802;2023-02-23T00:15:46;120.03;;;52.85;;
20880;SDS011;10600;53.096;8.802;2023-02-23T00:16:46;120.68;;;54.13;;
20880;SDS011;10600;53.096;8.802;2023-02-23T00:17:47;127.68;;;55.97;;
20880;SDS011;10600;53.096;8.802;2023-02-23T00:18:49;121.15;;;51.38;;
20880;SDS011;10600;53.096;8.802;2023-02-23T00:19:52;127.05;;;55.40;;
20880;SDS011;10600;53.096;8.802;2023-02-23T00:20:55;124.75;;;52.88;;
20880;SDS011;10600;53.096;8.802;2023-02-23T00:21:56;114.07;;;51.22;;
20880;SDS011;10600;53.096;8.802;2023-02-23T00:22:57;105.07;;;49.08;;
20880;SDS011;10600;53.096;8.802;2023-02-23T00:23:59;126.95;;;52.05;;
20880;SDS011;10600;53.096;8.802;2023-02-23T00:25:02;120.43;;;53.50;;
20880;SDS011;10600;53.096;8.802;2023-02-23T00:26:07;113.15;;;49.53;;
20880;SDS011;10600;53.096;8.802;2023-02-23T00:27:08;119.63;;;52.47;;
20880;SDS011;10600;53.096;8.802;2023-02-23T00:28:09;116.47;;;52.90;;
20880;SDS011;10600;53.096;8.802;2023-02-23T00:29:11;124.47;;;54.03;;
20880;SDS011;10600;53.096;8.802;2023-02-23T00:30:16;120.50;;;51.83;;
20880;SDS011;10600;53.096;8.802;2023-02-23T00:31:17;124.00;;;54.67;;
20880;SDS011;10600;53.096;8.802;2023-02-23T00:32:24;123.57;;;54.30;;
20880;SDS011;10600;53.096;8.802;2023-02-23T00:33:24;124.72;;;53.33;;
20880;SDS011;10600;53.096;8.802;2023-02-23T00:34:25;128.70;;;54.47;;
20880;SDS011;10600;53.096;8.802;2023-02-23T00:35:26;122.43;;;55.58;;
20880;SDS011;10600;53.096;8.802;2023-02-23T00:36:28;120.75;;;53.28;;
20880;SDS011;10600;53.096;8.802;2023-02-23T00:37:30;112.53;;;51.53;;
20880;SDS011;10600;53.096;8.802;2023-02-23T00:38:31;128.00;;;55.33;;
20880;SDS011;10600;53.096;8.802;2023-02-23T00:39:35;115.97;;;51.63;;
20880;SDS011;10600;53.096;8.802;2023-02-23T00:40:38;113.78;;;51.05;;
20880;SDS011;10600;53.096;8.802;2023-02-23T00:41:40;112.78;;;52.85;;
20880;SDS011;10600;53.096;8.802;2023-02-23T00:42:42;119.50;;;54.88;;
20880;SDS011;10600;53.096;8.802;2023-02-23T00:43:46;114.47;;;53.33;;
20880;SDS011;10600;53.096;8.802;2023-02-23T00:44:46;112.60;;;52.25;;
20880;SDS011;10600;53.096;8.802;2023-02-23T00:45:48;112.72;;;52.05;;
20880;SDS011;10600;53.096;8.802;2023-02-23T00:46:48;110.00;;;50.40;;
20880;SDS011;10600;53.096;8.802;2023-02-23T00:47:50;107.53;;;49.65;;
20880;SDS011;10600;53.096;8.802;2023-02-23T00:48:51;114.28;;;49.88;;
20880;SDS011;10600;53.096;8.802;2023-02-23T00:49:54;108.22;;;51.45;;
20880;SDS011;10600;53.096;8.802;2023-02-23T00:50:58;112.22;;;50.20;;
20880;SDS011;10600;53.096;8.802;2023-02-23T00:52:00;111.70;;;51.88;;
20880;SDS011;10600;53.096;8.802;2023-02-23T00:53:00;100.07;;;49.95;;
20880;SDS011;10600;53.096;8.802;2023-02-23T00:54:01;99.88;;;50.15;;
20880;SDS011;10600;53.096;8.802;2023-02-23T00:55:02;102.25;;;48.83;;
20880;SDS011;10600;53.096;8.802;2023-02-23T00:56:03;104.93;;;51.78;;
20880;SDS011;10600;53.096;8.802;2023-02-23T00:57:04;94.38;;;46.45;;
20880;SDS011;10600;53.096;8.802;2023-02-23T00:58:05;100.18;;;49.92;;
20880;SDS011;10600;53.096;8.802;2023-02-23T00:59:08;96.20;;;46.90;;
20880;SDS011;10600;53.096;8.802;2023-02-23T01:00:10;105.18;;;49.03;;
20880;SDS011;10600;53.096;8.802;2023-02-23T01:01:20;102.00;;;48.58;;
20880;SDS011;10600;53.096;8.802;2023-02-23T01:02:22;94.32;;;45.65;;
20880;SDS011;10600;53.096;8.802;2023-02-23T01:03:22;110.45;;;48.30;;
20880;SDS011;10600;53.096;8.802;2023-02-23T01:04:23;98.95;;;45.15;;
20880;SDS011;10600;53.096;8.802;2023-02-23T01:05:23;102.28;;;47.72;;
20880;SDS011;10600;53.096;8.802;2023-02-23T01:06:24;97.00;;;46.03;;
20880;SDS011;10600;53.096;8.802;2023-02-23T01:07:25;94.50;;;46.08;;
20880;SDS011;10600;53.096;8.802;2023-02-23T01:08:25;95.82;;;47.00;;
20880;SDS011;10600;53.096;8.802;2023-02-23T01:09:29;92.10;;;42.65;;
20880;SDS011;10600;53.096;8.802;2023-02-23T01:10:29;95.53;;;47.30;;
20880;SDS011;10600;53.096;8.802;2023-02-23T01:11:30;92.80;;;45.45;;
20880;SDS011;10600;53.096;8.802;2023-02-23T01:12:31;98.40;;;44.00;;
20880;SDS011;10600;53.096;8.802;2023-02-23T01:13:31;97.82;;;47.80;;
20880;SDS011;10600;53.096;8.802;2023-02-23T01:14:32;100.05;;;46.28;;
20880;SDS011;10600;53.096;8.802;2023-02-23T01:15:33;94.20;;;47.63;;
20880;SDS011;10600;53.096;8.802;2023-02-23T01:16:33;99.00;;;46.28;;
20880;SDS011;10600;53.096;8.802;2023-02-23T01:17:34;94.13;;;42.35;;
20880;SDS011;10600;53.096;8.802;2023-02-23T01:18:35;102.70;;;46.33;;
20880;SDS011;10600;53.096;8.802;2023-02-23T01:19:37;98.07;;;45.70;;
20880;SDS011;10600;53.096;8.802;2023-02-23T01:20:37;101.18;;;47.05;;
20880;SDS011;10600;53.096;8.802;2023-02-23T01:21:41;95.82;;;45.72;;
20880;SDS011;10600;53.096;8.802;2023-02-23T01:22:42;97.43;;;45.13;;
20880;SDS011;10600;53.096;8.802;2023-02-23T01:23:44;99.60;;;46.67;;
20880;SDS011;10600;53.096;8.802;2023-02-23T01:24:45;98.50;;;45.20;;
20880;SDS011;10600;53.096;8.802;2023-02-23T01:25:46;97.22;;;47.78;;
20880;SDS011;10600;53.096;8.802;2023-02-23T01:26:47;97.80;;;46.60;;
20880;SDS011;10600;53.096;8.802;2023-02-23T01:27:47;99.93;;;47.83;;
20880;SDS011;10600;53.096;8.802;2023-02-23T01:28:57;100.15;;;47.13;;
20880;SDS011;10600;53.096;8.802;2023-02-23T01:30:00;93.95;;;44.60;;
20880;SDS011;10600;53.096;8.802;2023-02-23T01:31:00;97.68;;;45.90;;
20880;SDS011;10600;53.096;8.802;2023-02-23T01:32:01;94.90;;;44.92;;
20880;SDS011;10600;53.096;8.802;2023-02-23T01:33:01;100.70;;;47.40;;
20880;SDS011;10600;53.096;8.802;2023-02-23T01:34:03;101.00;;;47.70;;
20880;SDS011;10600;53.096;8.802;2023-02-23T01:35:06;97.80;;;47.17;;
20880;SDS011;10600;53.096;8.802;2023-02-23T01:36:08;88.53;;;43.78;;
20880;SDS011;10600;53.096;8.802;2023-02-23T01:37:09;96.47;;;46.25;;
20880;SDS011;10600;53.096;8.802;2023-02-23T01:38:10;103.70;;;45.80;;
20880;SDS011;10600;53.096;8.802;2023-02-23T01:39:12;103.50;;;47.45;;
20880;SDS011;10600;53.096;8.802;2023-02-23T01:41:30;99.32;;;44.38;;
20880;SDS011;10600;53.096;8.802;2023-02-23T01:42:35;103.63;;;46.47;;
20880;SDS011;10600;53.096;8.802;2023-02-23T01:46:31;97.78;;;43.50;;
20880;SDS011;10600;53.096;8.802;2023-02-23T01:47:34;103.20;;;45.58;;
20880;SDS011;10600;53.096;8.802;2023-02-23T01:48:36;99.68;;;44.00;;
20880;SDS011;10600;53.096;8.802;2023-02-23T01:49:39;98.90;;;45.15;;
20880;SDS011;10600;53.096;8.802;2023-02-23T01:50:48;100.57;;;47.20;;
20880;SDS011;10600;53.096;8.802;2023-02-23T01:53:09;102.45;;;44.78;;
20880;SDS011;10600;53.096;8.802;2023-02-23T01:54:11;99.15;;;46.42;;
20880;SDS011;10600;53.096;8.802;2023-02-23T01:55:16;95.75;;;43.38;;
20880;SDS011;10600;53.096;8.802;2023-02-23T01:56:28;103.30;;;46.85;;
20880;SDS011;10600;53.096;8.802;2023-02-23T01:57:32;95.75;;;45.33;;
20880;SDS011;10600;53.096;8.802;2023-02-23T01:58:32;103.65;;;46.70;;
20880;SDS011;10600;53.096;8.802;2023-02-23T01:59:43;105.50;;;44.22;;
20880;SDS011;10600;53.096;8.802;2023-02-23T02:00:55;104.45;;;46.70;;
20880;SDS011;10600;53.096;8.802;2023-02-23T02:01:57;106.30;;;47.50;;
20880;SDS011;10600;53.096;8.802;2023-02-23T02:02:59;102.10;;;47.88;;
20880;SDS011;10600;53.096;8.802;2023-02-23T02:04:08;104.40;;;45.47;;
20880;SDS011;10600;53.096;8.802;2023-02-23T02:05:15;101.60;;;46.72;;
20880;SDS011;10600;53.096;8.802;2023-02-23T02:06:17;101.50;;;46.75;;
20880;SDS011;10600;53.096;8.802;2023-02-23T02:07:23;107.07;;;46.15;;
20880;SDS011;10600;53.096;8.802;2023-02-23T02:08:30;111.05;;;47.15;;
20880;SDS011;10600;53.096;8.802;2023-02-23T02:09:32;105.65;;;45.85;;
20880;SDS011;10600;53.096;8.802;2023-02-23T02:10:38;101.30;;;42.63;;
20880;SDS011;10600;53.096;8.802;2023-02-23T02:11:39;110.22;;;47.90;;
20880;SDS011;10600;53.096;8.802;2023-02-23T02:12:44;103.78;;;46.22;;
20880;SDS011;10600;53.096;8.802;2023-02-23T02:13:54;100.15;;;45.08;;
20880;SDS011;10600;53.096;8.802;2023-02-23T02:15:02;104.53;;;43.70;;
20880;SDS011;10600;53.096;8.802;2023-02-23T02:16:10;105.57;;;45.13;;
20880;SDS011;10600;53.096;8.802;2023-02-23T02:20:55;101.28;;;42.38;;
20880;SDS011;10600;53.096;8.802;2023-02-23T02:21:37;103.72;;;44.72;;
20880;SDS011;10600;53.096;8.802;2023-02-23T02:27:00;109.95;;;45.28;;
20880;SDS011;10600;53.096;8.802;2023-02-23T02:36:00;110.63;;;45.97;;
20880;SDS011;10600;53.096;8.802;2023-02-23T02:40:55;114.00;;;45.42;;
20880;SDS011;10600;53.096;8.802;2023-02-23T02:45:50;111.43;;;46.95;;
20880;SDS011;10600;53.096;8.802;2023-02-23T02:47:05;106.38;;;43.13;;
20880;SDS011;10600;53.096;8.802;2023-02-23T02:49:31;101.03;;;40.63;;
20880;SDS011;10600;53.096;8.802;2023-02-23T02:50:50;113.20;;;45.00;;
20880;SDS011;10600;53.096;8.802;2023-02-23T02:53:06;107.07;;;45.03;;
20880;SDS011;10600;53.096;8.802;2023-02-23T02:54:13;103.55;;;43.80;;
20880;SDS011;10600;53.096;8.802;2023-02-23T02:55:22;102.30;;;43.15;;
20880;SDS011;10600;53.096;8.802;2023-02-23T02:56:26;103.88;;;41.65;;
20880;SDS011;10600;53.096;8.802;2023-02-23T02:57:27;111.68;;;46.85;;
20880;SDS011;10600;53.096;8.802;2023-02-23T02:58:28;107.97;;;44.92;;
20880;SDS011;10600;53.096;8.802;2023-02-23T02:59:29;98.75;;;42.17;;
20880;SDS011;10600;53.096;8.802;2023-02-23T03:00:48;106.22;;;44.30;;
20880;SDS011;10600;53.096;8.802;2023-02-23T03:02:14;102.00;;;44.53;;
20880;SDS011;10600;53.096;8.802;2023-02-23T03:05:00;106.78;;;43.55;;
20880;SDS011;10600;53.096;8.802;2023-02-23T03:06:20;108.82;;;43.78;;
20880;SDS011;10600;53.096;8.802;2023-02-23T03:08:20;111.85;;;44.90;;
20880;SDS011;10600;53.096;8.802;2023-02-23T03:09:47;114.45;;;44.53;;
20880;SDS011;10600;53.096;8.802;2023-02-23T03:11:16;111.88;;;43.28;;
20880;SDS011;10600;53.096;8.802;2023-02-23T03:18:40;101.82;;;44.13;;
20880;SDS011;10600;53.096;8.802;2023-02-23T03:24:48;124.13;;;46.85;;
20880;SDS011;10600;53.096;8.802;2023-02-23T03:26:20;120.72;;;45.50;;
20880;SDS011;10600;53.096;8.802;2023-02-23T03:27:56;120.28;;;46.92;;
20880;SDS011;10600;53.096;8.802;2023-02-23T03:29:52;116.70;;;45.30;;
20880;SDS011;10600;53.096;8.802;2023-02-23T03:33:12;115.35;;;44.35;;
20880;SDS011;10600;53.096;8.802;2023-02-23T03:34:46;116.57;;;47.00;;
20880;SDS011;10600;53.096;8.802;2023-02-23T03:36:33;125.30;;;48.33;;
20880;SDS011;10600;53.096;8.802;2023-02-23T03:38:01;115.45;;;46.85;;
20880;SDS011;10600;53.096;8.802;2023-02-23T03:39:34;112.25;;;47.30;;
20880;SDS011;10600;53.096;8.802;2023-02-23T03:40:58;119.50;;;46.00;;
20880;SDS011;10600;53.096;8.802;2023-02-23T03:42:19;110.18;;;46.75;;
20880;SDS011;10600;53.096;8.802;2023-02-23T03:43:44;117.10;;;47.42;;
20880;SDS011;10600;53.096;8.802;2023-02-23T03:45:11;127.47;;;49.35;;
20880;SDS011;10600;53.096;8.802;2023-02-23T03:46:35;125.22;;;48.92;;
20880;SDS011;10600;53.096;8.802;2023-02-23T03:47:56;115.78;;;47.83;;
20880;SDS011;10600;53.096;8.802;2023-02-23T03:49:18;129.77;;;48.28;;
20880;SDS011;10600;53.096;8.802;2023-02-23T03:50:41;124.03;;;48.38;;
20880;SDS011;10600;53.096;8.802;2023-02-23T03:52:09;114.35;;;46.00;;
20880;SDS011;10600;53.096;8.802;2023-02-23T03:53:34;117.80;;;49.45;;
20880;SDS011;10600;53.096;8.802;2023-02-23T03:55:02;124.00;;;49.03;;
20880;SDS011;10600;53.096;8.802;2023-02-23T03:56:25;123.10;;;47.08;;
20880;SDS011;10600;53.096;8.802;2023-02-23T03:57:45;116.03;;;47.15;;
20880;SDS011;10600;53.096;8.802;2023-02-23T03:59:07;117.75;;;49.05;;
20880;SDS011;10600;53.096;8.802;2023-02-23T04:00:31;116.95;;;45.17;;
20880;SDS011;10600;53.096;8.802;2023-02-23T04:01:54;118.80;;;47.85;;
20880;SDS011;10600;53.096;8.802;2023-02-23T04:03:15;112.30;;;47.22;;
20880;SDS011;10600;53.096;8.802;2023-02-23T04:04:36;117.40;;;46.88;;
20880;SDS011;10600;53.096;8.802;2023-02-23T04:05:58;125.25;;;47.88;;
20880;SDS011;10600;53.096;8.802;2023-02-23T04:07:17;115.20;;;46.95;;
20880;SDS011;10600;53.096;8.802;2023-02-23T04:08:37;121.13;;;47.15;;
20880;SDS011;10600;53.096;8.802;2023-02-23T04:09:57;122.20;;;47.63;;
20880;SDS011;10600;53.096;8.802;2023-02-23T04:11:40;121.55;;;48.35;;
20880;SDS011;10600;53.096;8.802;2023-02-23T04:13:19;117.40;;;46.60;;
20880;SDS011;10600;53.096;8.802;2023-02-23T04:14:28;125.43;;;46.63;;
20880;SDS011;10600;53.096;8.802;2023-02-23T04:15:36;106.68;;;44.42;;
20880;SDS011;10600;53.096;8.802;2023-02-23T04:17:04;125.82;;;46.83;;
20880;SDS011;10600;53.096;8.802;2023-02-23T04:18:06;111.47;;;44.97;;
20880;SDS011;10600;53.096;8.802;2023-02-23T04:19:15;122.55;;;48.58;;
20880;SDS011;10600;53.096;8.802;2023-02-23T04:20:15;121.82;;;48.80;;
20880;SDS011;10600;53.096;8.802;2023-02-23T04:21:16;132.45;;;51.47;;
20880;SDS011;10600;53.096;8.802;2023-02-23T04:22:16;125.32;;;48.25;;
20880;SDS011;10600;53.096;8.802;2023-02-23T04:23:17;126.90;;;48.53;;
20880;SDS011;10600;53.096;8.802;2023-02-23T04:24:18;121.07;;;47.45;;
20880;SDS011;10600;53.096;8.802;2023-02-23T04:25:19;119.18;;;47.85;;
20880;SDS011;10600;53.096;8.802;2023-02-23T04:26:23;123.32;;;46.88;;
20880;SDS011;10600;53.096;8.802;2023-02-23T04:27:23;122.45;;;48.13;;
20880;SDS011;10600;53.096;8.802;2023-02-23T04:28:26;119.72;;;46.63;;
20880;SDS011;10600;53.096;8.802;2023-02-23T04:29:28;121.63;;;46.95;;
20880;SDS011;10600;53.096;8.802;2023-02-23T04:30:28;119.15;;;48.13;;
20880;SDS011;10600;53.096;8.802;2023-02-23T04:31:29;119.60;;;47.95;;
20880;SDS011;10600;53.096;8.802;2023-02-23T04:32:30;138.38;;;50.47;;
20880;SDS011;10600;53.096;8.802;2023-02-23T04:33:30;130.90;;;49.40;;
20880;SDS011;10600;53.096;8.802;2023-02-23T04:34:31;131.27;;;49.47;;
20880;SDS011;10600;53.096;8.802;2023-02-23T04:35:32;133.65;;;48.55;;
20880;SDS011;10600;53.096;8.802;2023-02-23T04:36:33;141.77;;;51.05;;
20880;SDS011;10600;53.096;8.802;2023-02-23T04:37:35;127.28;;;48.42;;
20880;SDS011;10600;53.096;8.802;2023-02-23T04:38:36;133.13;;;49.08;;
20880;SDS011;10600;53.096;8.802;2023-02-23T04:39:36;134.48;;;48.47;;
20880;SDS011;10600;53.096;8.802;2023-02-23T04:40:37;128.88;;;49.22;;
20880;SDS011;10600;53.096;8.802;2023-02-23T04:41:38;133.35;;;49.65;;
20880;SDS011;10600;53.096;8.802;2023-02-23T04:42:39;144.68;;;50.40;;
20880;SDS011;10600;53.096;8.802;2023-02-23T04:43:40;125.72;;;48.28;;
20880;SDS011;10600;53.096;8.802;2023-02-23T04:44:40;121.80;;;46.10;;
20880;SDS011;10600;53.096;8.802;2023-02-23T04:45:41;130.32;;;48.58;;
20880;SDS011;10600;53.096;8.802;2023-02-23T04:46:43;129.75;;;50.08;;
20880;SDS011;10600;53.096;8.802;2023-02-23T04:47:44;132.75;;;48.83;;
20880;SDS011;10600;53.096;8.802;2023-02-23T04:48:45;139.70;;;50.65;;
20880;SDS011;10600;53.096;8.802;2023-02-23T04:49:46;132.27;;;49.72;;
20880;SDS011;10600;53.096;8.802;2023-02-23T04:50:50;136.07;;;49.70;;
20880;SDS011;10600;53.096;8.802;2023-02-23T04:51:51;141.10;;;52.03;;
20880;SDS011;10600;53.096;8.802;2023-02-23T04:52:52;140.40;;;49.85;;
20880;SDS011;10600;53.096;8.802;2023-02-23T04:53:53;141.63;;;48.30;;
20880;SDS011;10600;53.096;8.802;2023-02-23T04:54:53;142.60;;;52.17;;
20880;SDS011;10600;53.096;8.802;2023-02-23T04:55:54;131.43;;;51.22;;
20880;SDS011;10600;53.096;8.802;2023-02-23T04:56:55;140.57;;;49.38;;
20880;SDS011;10600;53.096;8.802;2023-02-23T04:57:56;149.63;;;52.42;;
20880;SDS011;10600;53.096;8.802;2023-02-23T04:58:59;144.57;;;50.80;;
20880;SDS011;10600;53.096;8.802;2023-02-23T04:59:59;142.55;;;50.25;;
20880;SDS011;10600;53.096;8.802;2023-02-23T05:01:04;139.32;;;49.53;;
20880;SDS011;10600;53.096;8.802;2023-02-23T05:02:07;147.70;;;50.05;;
20880;SDS011;10600;53.096;8.802;2023-02-23T05:03:08;144.75;;;47.65;;
20880;SDS011;10600;53.096;8.802;2023-02-23T05:04:11;146.05;;;49.55;;
20880;SDS011;10600;53.096;8.802;2023-02-23T05:05:11;146.57;;;49.35;;
20880;SDS011;10600;53.096;8.802;2023-02-23T05:06:12;152.43;;;51.65;;
20880;SDS011;10600;53.096;8.802;2023-02-23T05:07:13;144.52;;;48.35;;
20880;SDS011;10600;53.096;8.802;2023-02-23T05:08:14;143.60;;;50.28;;
20880;SDS011;10600;53.096;8.802;2023-02-23T05:09:14;143.73;;;50.05;;
20880;SDS011;10600;53.096;8.802;2023-02-23T05:10:15;141.05;;;49.47;;
20880;SDS011;10600;53.096;8.802;2023-02-23T05:11:16;139.77;;;48.03;;
20880;SDS011;10600;53.096;8.802;2023-02-23T05:12:17;152.48;;;51.28;;
20880;SDS011;10600;53.096;8.802;2023-02-23T05:13:17;156.48;;;51.70;;
20880;SDS011;10600;53.096;8.802;2023-02-23T05:14:18;158.18;;;52.03;;
20880;SDS011;10600;53.096;8.802;2023-02-23T05:15:18;153.20;;;51.22;;
20880;SDS011;10600;53.096;8.802;2023-02-23T05:16:20;129.93;;;43.70;;
20880;SDS011;10600;53.096;8.802;2023-02-23T05:17:20;128.60;;;43.00;;
20880;SDS011;10600;53.096;8.802;2023-02-23T05:18:21;152.75;;;48.53;;
20880;SDS011;10600;53.096;8.802;2023-02-23T05:19:22;147.73;;;49.45;;
20880;SDS011;10600;53.096;8.802;2023-02-23T05:20:23;147.32;;;49.97;;
20880;SDS011;10600;53.096;8.802;2023-02-23T05:21:23;147.88;;;49.28;;
20880;SDS011;10600;53.096;8.802;2023-02-23T05:22:24;147.13;;;49.58;;
20880;SDS011;10600;53.096;8.802;2023-02-23T05:23:25;147.40;;;49.53;;
20880;SDS011;10600;53.096;8.802;2023-02-23T05:24:25;144.60;;;49.53;;
20880;SDS011;10600;53.096;8.802;2023-02-23T05:25:26;144.93;;;47.92;;
20880;SDS011;10600;53.096;8.802;2023-02-23T05:26:27;146.25;;;47.92;;
20880;SDS011;10600;53.096;8.802;2023-02-23T05:27:27;137.75;;;47.78;;
20880;SDS011;10600;53.096;8.802;2023-02-23T05:28:28;144.68;;;48.47;;
20880;SDS011;10600;53.096;8.802;2023-02-23T05:29:29;145.02;;;50.55;;
20880;SDS011;10600;53.096;8.802;2023-02-23T05:30:30;150.32;;;51.45;;
20880;SDS011;10600;53.096;8.802;2023-02-23T05:31:32;144.85;;;49.75;;
20880;SDS011;10600;53.096;8.802;2023-02-23T05:32:33;142.45;;;49.13;;
20880;SDS011;10600;53.096;8.802;2023-02-23T05:33:34;139.88;;;47.08;;
20880;SDS011;10600;53.096;8.802;2023-02-23T05:34:41;146.45;;;47.92;;
20880;SDS011;10600;53.096;8.802;2023-02-23T05:35:42;152.93;;;51.95;;
20880;SDS011;10600;53.096;8.802;2023-02-23T05:36:42;135.95;;;48.30;;
20880;SDS011;10600;53.096;8.802;2023-02-23T05:37:43;162.93;;;51.17;;
20880;SDS011;10600;53.096;8.802;2023-02-23T05:38:44;138.65;;;45.30;;
20880;SDS011;10600;53.096;8.802;2023-02-23T05:39:46;153.05;;;50.42;;
20880;SDS011;10600;53.096;8.802;2023-02-23T05:40:46;130.55;;;44.50;;
20880;SDS011;10600;53.096;8.802;2023-02-23T05:41:47;140.60;;;44.40;;
20880;SDS011;10600;53.096;8.802;2023-02-23T05:42:48;146.30;;;48.63;;
20880;SDS011;10600;53.096;8.802;2023-02-23T05:43:49;161.75;;;54.25;;
20880;SDS011;10600;53.096;8.802;2023-02-23T05:44:52;161.20;;;50.92;;
20880;SDS011;10600;53.096;8.802;2023-02-23T05:45:53;142.95;;;47.08;;
20880;SDS011;10600;53.096;8.802;2023-02-23T05:46:54;149.52;;;50.08;;
20880;SDS011;10600;53.096;8.802;2023-02-23T05:47:54;137.15;;;49.38;;
20880;SDS011;10600;53.096;8.802;2023-02-23T05:48:56;140.07;;;44.55;;
20880;SDS011;10600;53.096;8.802;2023-02-23T05:49:58;150.18;;;49.63;;
20880;SDS011;10600;53.096;8.802;2023-02-23T05:51:03;154.05;;;49.22;;
20880;SDS011;10600;53.096;8.802;2023-02-23T05:52:04;143.93;;;48.60;;
20880;SDS011;10600;53.096;8.802;2023-02-23T05:53:05;145.07;;;48.22;;
20880;SDS011;10600;53.096;8.802;2023-02-23T05:54:06;152.18;;;50.92;;
20880;SDS011;10600;53.096;8.802;2023-02-23T05:55:07;144.85;;;49.22;;
20880;SDS011;10600;53.096;8.802;2023-02-23T05:56:11;148.18;;;50.38;;
20880;SDS011;10600;53.096;8.802;2023-02-23T05:57:17;150.65;;;51.08;;
20880;SDS011;10600;53.096;8.802;2023-02-23T05:58:17;149.55;;;50.63;;
20880;SDS011;10600;53.096;8.802;2023-02-23T05:59:18;154.90;;;50.08;;
20880;SDS011;10600;53.096;8.802;2023-02-23T06:00:19;143.88;;;50.80;;
20880;SDS011;10600;53.096;8.802;2023-02-23T06:01:21;154.18;;;51.75;;
20880;SDS011;10600;53.096;8.802;2023-02-23T06:02:22;144.65;;;51.08;;
20880;SDS011;10600;53.096;8.802;2023-02-23T06:03:22;157.02;;;49.15;;
20880;SDS011;10600;53.096;8.802;2023-02-23T06:04:23;153.30;;;52.47;;
20880;SDS011;10600;53.096;8.802;2023-02-23T06:05:24;156.52;;;52.03;;
20880;SDS011;10600;53.096;8.802;2023-02-23T06:06:24;174.40;;;53.63;;
20880;SDS011;10600;53.096;8.802;2023-02-23T06:07:25;153.15;;;52.22;;
20880;SDS011;10600;53.096;8.802;2023-02-23T06:08:26;162.05;;;53.35;;
20880;SDS011;10600;53.096;8.802;2023-02-23T06:09:27;167.68;;;54.15;;
20880;SDS011;10600;53.096;8.802;2023-02-23T06:10:27;175.93;;;55.70;;
20880;SDS011;10600;53.096;8.802;2023-02-23T06:11:28;170.88;;;54.30;;
20880;SDS011;10600;53.096;8.802;2023-02-23T06:12:29;170.20;;;53.10;;
20880;SDS011;10600;53.096;8.802;2023-02-23T06:13:30;169.68;;;53.60;;
20880;SDS011;10600;53.096;8.802;2023-02-23T06:14:31;173.82;;;52.20;;
20880;SDS011;10600;53.096;8.802;2023-02-23T06:15:32;174.55;;;55.47;;
20880;SDS011;10600;53.096;8.802;2023-02-23T06:16:32;173.18;;;55.30;;
20880;SDS011;10600;53.096;8.802;2023-02-23T06:17:33;147.63;;;45.42;;
20880;SDS011;10600;53.096;8.802;2023-02-23T06:18:34;173.48;;;53.88;;
20880;SDS011;10600;53.096;8.802;2023-02-23T06:19:35;170.98;;;54.55;;
20880;SDS011;10600;53.096;8.802;2023-02-23T06:20:36;178.55;;;56.05;;
20880;SDS011;10600;53.096;8.802;2023-02-23T06:21:37;165.30;;;53.40;;
20880;SDS011;10600;53.096;8.802;2023-02-23T06:22:38;158.43;;;53.40;;
20880;SDS011;10600;53.096;8.802;2023-02-23T06:23:38;157.63;;;47.72;;
20880;SDS011;10600;53.096;8.802;2023-02-23T06:24:39;170.15;;;55.05;;
20880;SDS011;10600;53.096;8.802;2023-02-23T06:25:40;181.80;;;55.63;;
20880;SDS011;10600;53.096;8.802;2023-02-23T06:26:42;169.80;;;55.20;;
20880;SDS011;10600;53.096;8.802;2023-02-23T06:27:42;173.30;;;53.50;;
20880;SDS011;10600;53.096;8.802;2023-02-23T06:28:44;170.05;;;54.92;;
20880;SDS011;10600;53.096;8.802;2023-02-23T06:29:44;181.98;;;56.22;;
20880;SDS011;10600;53.096;8.802;2023-02-23T06:30:45;172.57;;;54.20;;
20880;SDS011;10600;53.096;8.802;2023-02-23T06:31:46;188.10;;;55.63;;
20880;SDS011;10600;53.096;8.802;2023-02-23T06:32:46;171.35;;;53.80;;
20880;SDS011;10600;53.096;8.802;2023-02-23T06:33:47;173.77;;;54.28;;
20880;SDS011;10600;53.096;8.802;2023-02-23T06:34:48;169.35;;;55.22;;
20880;SDS011;10600;53.096;8.802;2023-02-23T06:35:48;169.90;;;53.47;;
20880;SDS011;10600;53.096;8.802;2023-02-23T06:36:49;171.05;;;54.05;;
20880;SDS011;10600;53.096;8.802;2023-02-23T06:37:49;174.30;;;57.05;;
20880;SDS011;10600;53.096;8.802;2023-02-23T06:38:50;166.70;;;53.00;;
20880;SDS011;10600;53.096;8.802;2023-02-23T06:39:54;172.18;;;54.75;;
20880;SDS011;10600;53.096;8.802;2023-02-23T06:40:55;174.45;;;54.47;;
20880;SDS011;10600;53.096;8.802;2023-02-23T06:41:55;170.70;;;55.17;;
20880;SDS011;10600;53.096;8.802;2023-02-23T06:42:56;167.35;;;54.90;;
20880;SDS011;10600;53.096;8.802;2023-02-23T06:43:57;167.65;;;55.13;;
20880;SDS011;10600;53.096;8.802;2023-02-23T06:44:57;175.13;;;54.72;;
20880;SDS011;10600;53.096;8.802;2023-02-23T06:45:58;174.32;;;57.05;;
20880;SDS011;10600;53.096;8.802;2023-02-23T06:46:58;156.55;;;52.55;;
20880;SDS011;10600;53.096;8.802;2023-02-23T06:47:59;168.35;;;53.92;;
20880;SDS011;10600;53.096;8.802;2023-02-23T06:49:00;174.13;;;53.88;;
20880;SDS011;10600;53.096;8.802;2023-02-23T06:50:01;172.52;;;52.83;;
20880;SDS011;10600;53.096;8.802;2023-02-23T06:51:02;159.88;;;54.72;;
20880;SDS011;10600;53.096;8.802;2023-02-23T06:52:03;177.73;;;54.53;;
20880;SDS011;10600;53.096;8.802;2023-02-23T06:53:04;167.95;;;52.35;;
20880;SDS011;10600;53.096;8.802;2023-02-23T06:54:05;168.35;;;53.92;;
20880;SDS011;10600;53.096;8.802;2023-02-23T06:55:06;160.65;;;53.85;;
20880;SDS011;10600;53.096;8.802;2023-02-23T06:56:07;176.00;;;53.40;;
20880;SDS011;10600;53.096;8.802;2023-02-23T06:57:08;160.52;;;51.63;;
20880;SDS011;10600;53.096;8.802;2023-02-23T06:58:09;177.32;;;53.83;;
20880;SDS011;10600;53.096;8.802;2023-02-23T06:59:10;158.60;;;51.70;;
20880;SDS011;10600;53.096;8.802;2023-02-23T07:00:10;169.75;;;52.70;;
20880;SDS011;10600;53.096;8.802;2023-02-23T07:01:14;164.13;;;50.45;;